Time;durP1;ratioP1;P1;durP2;ratioP2;P2;SDS_P1;SDS_P2;PMS_P1;PMS_P2;Temp;Humidity;BMP_temperature;BMP_pressure;BME280_temperature;BME280_humidity;BME280_pressure;Samples;Min_cycle;Max_cycle;Signal;HPM_P1;HPM_P2
2023/09/01 00:02:04;;;;;;;;;;;15.60;94.30;;;;;;5006389;28;20001;-71
2023/09/01 00:04:30;;;;;;;;;;;15.60;94.30;;;;;;5006499;28;20370;-71
2023/09/01 00:06:55;;;;;;;;;;;15.50;94.30;;;;;;5002690;28;19970;-71
2023/09/01 00:09:21;;;;;;;;;;;15.50;94.30;;;;;;5008124;28;19916;-71
2023/09/01 00:11:46;;;;;;;;;;;15.50;94.60;;;;;;5005914;28;19910;-71
2023/09/01 00:14:12;;;;;;;;;;;15.50;94.30;;;;;;4993652;28;19921;-71
2023/09/01 00:16:37;;;;;;;;;;;15.50;94.30;;;;;;5006555;28;19924;-71
2023/09/01 00:19:03;;;;;;;;;;;15.50;94.30;;;;;;5006153;28;20274;-71
2023/09/01 00:21:28;;;;;;;;;;;15.50;94.30;;;;;;5005949;28;19949;-71
2023/09/01 00:23:54;;;;;;;;;;;15.50;94.30;;;;;;5003060;28;19914;-71
2023/09/01 00:26:19;;;;;;;;;;;15.50;94.30;;;;;;5004290;28;19920;-71
2023/09/01 00:28:45;;;;;;;;;;;15.50;94.30;;;;;;5006309;28;19913;-71
2023/09/01 00:31:10;;;;;;;;;;;15.40;94.30;;;;;;5004103;28;19924;-71
2023/09/01 00:33:36;;;;;;;;;;;15.40;94.30;;;;;;5007491;28;19976;-71
2023/09/01 00:36:01;;;;;;;;;;;15.40;94.30;;;;;;5007110;28;19923;-71
2023/09/01 00:38:29;;;;;;;;;;;15.40;94.30;;;;;;4997682;28;20271;-71
2023/09/01 00:40:54;;;;;;;;;;;15.40;94.30;;;;;;5003210;28;20406;-71
2023/09/01 00:43:20;;;;;;;;;;;15.40;94.30;;;;;;5004113;28;19937;-71
2023/09/01 00:45:45;;;;;;;;;;;15.40;94.20;;;;;;5002961;28;19921;-71
2023/09/01 00:48:13;;;;;;;;;;;15.30;94.20;;;;;;4995903;28;19922;-71
2023/09/01 00:50:40;;;;;;;;;;;15.40;94.30;;;;;;5005468;28;20028;-71
2023/09/01 00:53:06;;;;;;;;;;;15.40;94.30;;;;;;5007445;28;20446;-71
2023/09/01 00:55:33;;;;;;;;;;;15.30;94.30;;;;;;4999362;28;19918;-71
2023/09/01 00:58:02;;;;;;;;;;;15.30;94.30;;;;;;5006535;28;19913;-71
2023/09/01 01:00:28;;;;;;;;;;;15.30;94.30;;;;;;5005808;28;19944;-71
2023/09/01 01:02:55;;;;;;;;;;;15.30;94.30;;;;;;5007533;28;19924;-71
2023/09/01 01:05:26;;;;;;;;;;;15.30;94.30;;;;;;5007401;28;19917;-71
2023/09/01 01:08:07;;;;;;;;;;;15.30;94.30;;;;;;5002854;28;19917;-71
2023/09/01 01:10:46;;;;;;;;;;;15.30;94.20;;;;;;5001664;28;20381;-71
2023/09/01 01:13:15;;;;;;;;;;;15.30;94.30;;;;;;4994786;28;20081;-71
2023/09/01 01:15:42;;;;;;;;;;;15.30;94.30;;;;;;5006675;28;19921;-71
2023/09/01 01:18:10;;;;;;;;;;;15.30;94.30;;;;;;5007220;28;19917;-71
2023/09/01 01:20:39;;;;;;;;;;;15.20;94.30;;;;;;5006545;28;19922;-71
2023/09/01 01:23:05;;;;;;;;;;;15.30;94.30;;;;;;5005734;28;19917;-71
2023/09/01 01:25:30;;;;;;;;;;;15.20;94.30;;;;;;5006075;28;19925;-71
2023/09/01 01:27:56;;;;;;;;;;;15.20;94.30;;;;;;5005687;28;19909;-71
2023/09/01 01:30:22;;;;;;;;;;;15.20;94.30;;;;;;5006953;28;19918;-71
2023/09/01 01:32:48;;;;;;;;;;;15.20;94.30;;;;;;5009642;28;19916;-71
2023/09/01 01:35:13;;;;;;;;;;;15.20;94.40;;;;;;5009453;28;19948;-71
2023/09/01 01:37:45;;;;;;;;;;;15.30;94.30;;;;;;5002343;28;19921;-71
2023/09/01 01:40:12;;;;;;;;;;;15.20;94.30;;;;;;5006816;28;19922;-71
2023/09/01 01:42:38;;;;;;;;;;;15.20;94.30;;;;;;5010098;28;20444;-71
2023/09/01 01:45:04;;;;;;;;;;;15.20;94.30;;;;;;5010774;28;20017;-71
2023/09/01 01:47:31;;;;;;;;;;;15.20;94.30;;;;;;5010068;28;19913;-71
2023/09/01 01:49:56;;;;;;;;;;;15.10;94.30;;;;;;5010544;28;20370;-71
2023/09/01 01:52:22;;;;;;;;;;;15.10;94.30;;;;;;5009950;28;19937;-71
2023/09/01 01:54:47;;;;;;;;;;;15.10;94.30;;;;;;5009919;28;19968;-71
2023/09/01 01:57:14;;;;;;;;;;;15.10;94.60;;;;;;5010221;28;19913;-71
2023/09/01 01:59:40;;;;;;;;;;;15.10;94.30;;;;;;5010075;28;19916;-71
2023/09/01 02:02:06;;;;;;;;;;;15.10;94.30;;;;;;5009928;28;20012;-71
2023/09/01 02:04:32;;;;;;;;;;;15.10;94.30;;;;;;5010072;28;19921;-71
2023/09/01 02:06:57;;;;;;;;;;;15.10;94.30;;;;;;5008342;28;19940;-71
2023/09/01 02:09:23;;;;;;;;;;;15.10;94.30;;;;;;5009929;28;19914;-71
2023/09/01 02:11:48;;;;;;;;;;;15.10;94.30;;;;;;5009230;28;19996;-71
2023/09/01 02:14:14;;;;;;;;;;;15.10;94.30;;;;;;5009527;28;19917;-71
2023/09/01 02:16:40;;;;;;;;;;;15.00;94.30;;;;;;5009585;28;20605;-71
2023/09/01 02:19:08;;;;;;;;;;;15.00;94.30;;;;;;5009987;28;19936;-71
2023/09/01 02:21:33;;;;;;;;;;;15.00;94.30;;;;;;5009343;28;20359;-71
2023/09/01 02:23:59;;;;;;;;;;;15.00;94.30;;;;;;5009701;28;19920;-71
2023/09/01 02:26:25;;;;;;;;;;;15.00;94.40;;;;;;5007887;28;20032;-71
2023/09/01 02:28:51;;;;;;;;;;;15.00;94.40;;;;;;5002627;28;19961;-71
2023/09/01 02:31:17;;;;;;;;;;;15.00;94.30;;;;;;5009276;28;20492;-71
2023/09/01 02:33:42;;;;;;;;;;;15.00;94.30;;;;;;5009217;28;19913;-71
2023/09/01 02:36:26;;;;;;;;;;;15.00;94.30;;;;;;5009444;28;19916;-71
2023/09/01 02:38:52;;;;;;;;;;;15.00;94.30;;;;;;5001670;28;19917;-71
2023/09/01 02:41:18;;;;;;;;;;;15.00;94.30;;;;;;5009109;28;19914;-71
2023/09/01 02:43:44;;;;;;;;;;;15.00;94.30;;;;;;5007504;28;20016;-71
2023/09/01 02:46:10;;;;;;;;;;;14.90;94.30;;;;;;5009040;28;19910;-71
2023/09/01 02:48:35;;;;;;;;;;;14.90;94.30;;;;;;5008626;28;19944;-71
2023/09/01 02:51:01;;;;;;;;;;;14.90;94.30;;;;;;5008727;28;19944;-71
2023/09/01 02:53:26;;;;;;;;;;;14.90;94.30;;;;;;5008656;28;19956;-71
2023/09/01 02:55:52;;;;;;;;;;;14.90;94.30;;;;;;5008686;28;19944;-71
2023/09/01 02:58:17;;;;;;;;;;;14.90;94.40;;;;;;5008573;28;20358;-71
2023/09/01 03:00:46;;;;;;;;;;;14.90;94.40;;;;;;5006774;28;20485;-71
2023/09/01 03:03:12;;;;;;;;;;;14.90;94.30;;;;;;5008777;28;19917;-71
2023/09/01 03:05:37;;;;;;;;;;;14.90;94.30;;;;;;5008451;28;19919;-71
2023/09/01 03:08:03;;;;;;;;;;;14.90;94.30;;;;;;5007039;28;19936;-71
2023/09/01 03:10:29;;;;;;;;;;;14.90;94.30;;;;;;5006614;28;19914;-71
2023/09/01 03:12:54;;;;;;;;;;;14.90;94.40;;;;;;5008642;28;19921;-71
2023/09/01 03:15:21;;;;;;;;;;;14.80;94.40;;;;;;5008708;28;19917;-71
2023/09/01 03:17:46;;;;;;;;;;;14.90;94.40;;;;;;5008579;28;20591;-71
2023/09/01 03:20:12;;;;;;;;;;;14.90;94.40;;;;;;5006863;28;19917;-71
2023/09/01 03:22:37;;;;;;;;;;;14.80;94.30;;;;;;5008286;28;19918;-71
2023/09/01 03:25:05;;;;;;;;;;;14.80;94.40;;;;;;5008848;28;19959;-71
2023/09/01 03:27:31;;;;;;;;;;;14.90;94.40;;;;;;5006996;28;19913;-71
2023/09/01 03:29:57;;;;;;;;;;;14.90;94.40;;;;;;5008754;28;19921;-71
2023/09/01 03:32:22;;;;;;;;;;;14.90;94.30;;;;;;5006784;28;19913;-71
2023/09/01 03:34:48;;;;;;;;;;;14.90;94.40;;;;;;5008158;28;19964;-71
2023/09/01 03:37:13;;;;;;;;;;;14.90;94.40;;;;;;5008310;28;19917;-71
2023/09/01 03:39:39;;;;;;;;;;;14.90;94.40;;;;;;5006703;28;20000;-71
2023/09/01 03:42:05;;;;;;;;;;;14.90;94.40;;;;;;5008063;28;19917;-71
2023/09/01 03:44:30;;;;;;;;;;;14.90;94.40;;;;;;5004457;28;20378;-71
2023/09/01 03:46:56;;;;;;;;;;;14.90;94.40;;;;;;5008351;28;19952;-71
2023/09/01 03:49:21;;;;;;;;;;;14.90;94.40;;;;;;5008068;28;19921;-71
2023/09/01 03:51:47;;;;;;;;;;;14.90;94.40;;;;;;5006270;28;19914;-71
2023/09/01 03:54:12;;;;;;;;;;;14.90;94.40;;;;;;5006290;28;19943;-71
2023/09/01 03:56:37;;;;;;;;;;;14.90;94.40;;;;;;5007878;28;19952;-71
2023/09/01 03:59:03;;;;;;;;;;;14.80;94.40;;;;;;5006944;28;20374;-71
2023/09/01 04:01:29;;;;;;;;;;;14.90;94.50;;;;;;5007522;28;19952;-71
2023/09/01 04:03:54;;;;;;;;;;;14.90;94.50;;;;;;5007828;28;19926;-71
2023/09/01 04:06:20;;;;;;;;;;;14.90;94.50;;;;;;5006093;28;19924;-71
2023/09/01 04:08:45;;;;;;;;;;;14.90;94.50;;;;;;5007356;28;19914;-71
2023/09/01 04:11:11;;;;;;;;;;;14.90;94.50;;;;;;5007344;28;19917;-71
2023/09/01 04:13:36;;;;;;;;;;;14.90;94.50;;;;;;5007297;28;19920;-71
2023/09/01 04:16:02;;;;;;;;;;;14.90;94.50;;;;;;5007849;28;20290;-71
2023/09/01 04:18:28;;;;;;;;;;;14.90;94.50;;;;;;5007575;28;19910;-71
2023/09/01 04:20:54;;;;;;;;;;;14.90;94.50;;;;;;5007840;28;20570;-71
2023/09/01 04:23:20;;;;;;;;;;;14.90;94.50;;;;;;5007859;28;19917;-71
2023/09/01 04:25:46;;;;;;;;;;;14.90;94.60;;;;;;5007352;28;19921;-71
2023/09/01 04:28:15;;;;;;;;;;;14.90;94.50;;;;;;5007534;28;20282;-71
2023/09/01 04:30:44;;;;;;;;;;;14.90;94.50;;;;;;5007294;28;19913;-71
2023/09/01 04:33:10;;;;;;;;;;;14.90;94.50;;;;;;5006596;28;19916;-71
2023/09/01 04:35:36;;;;;;;;;;;14.90;94.50;;;;;;5007376;28;20350;-71
2023/09/01 04:38:03;;;;;;;;;;;14.90;94.50;;;;;;5007082;28;20417;-71
2023/09/01 04:40:28;;;;;;;;;;;14.90;94.50;;;;;;5006054;28;19995;-71
2023/09/01 04:42:54;;;;;;;;;;;14.90;94.50;;;;;;5007192;28;19939;-71
2023/09/01 04:45:19;;;;;;;;;;;14.90;94.50;;;;;;5007219;28;19917;-71
2023/09/01 04:47:45;;;;;;;;;;;14.90;94.80;;;;;;5006668;28;19925;-71
2023/09/01 04:50:10;;;;;;;;;;;14.90;94.60;;;;;;5006262;28;19926;-71
2023/09/01 04:52:39;;;;;;;;;;;14.90;94.60;;;;;;5006640;28;19936;-71
2023/09/01 04:55:05;;;;;;;;;;;14.90;94.50;;;;;;5007676;28;19909;-71
2023/09/01 04:57:30;;;;;;;;;;;14.90;94.50;;;;;;5007067;28;19914;-71
2023/09/01 04:59:56;;;;;;;;;;;14.90;94.60;;;;;;5007534;28;19909;-70
2023/09/01 05:02:22;;;;;;;;;;;14.90;94.60;;;;;;5005581;28;20560;-71
2023/09/01 05:04:47;;;;;;;;;;;14.90;94.60;;;;;;5005601;28;20008;-70
2023/09/01 05:07:13;;;;;;;;;;;14.90;94.60;;;;;;5005718;28;19910;-71
2023/09/01 05:09:38;;;;;;;;;;;14.90;94.60;;;;;;5010841;28;19921;-71
2023/09/01 05:12:04;;;;;;;;;;;14.90;94.60;;;;;;5010925;28;19913;-71
2023/09/01 05:14:29;;;;;;;;;;;14.90;94.60;;;;;;5009325;28;19910;-71
2023/09/01 05:16:56;;;;;;;;;;;14.90;94.60;;;;;;5011053;28;20282;-71
2023/09/01 05:19:21;;;;;;;;;;;14.90;94.60;;;;;;5009460;28;19915;-71
2023/09/01 05:21:48;;;;;;;;;;;14.90;94.60;;;;;;5010526;28;20270;-71
2023/09/01 05:24:13;;;;;;;;;;;14.80;94.60;;;;;;5010955;28;19917;-70
2023/09/01 05:26:39;;;;;;;;;;;14.90;94.70;;;;;;5010456;28;19917;-71
2023/09/01 05:29:04;;;;;;;;;;;14.90;94.70;;;;;;5010565;28;19909;-71
2023/09/01 05:31:30;;;;;;;;;;;14.90;94.70;;;;;;5008587;28;20342;-71
2023/09/01 05:33:55;;;;;;;;;;;14.80;94.70;;;;;;5010647;28;19917;-71
2023/09/01 05:36:21;;;;;;;;;;;14.90;94.80;;;;;;5010353;28;20390;-71
2023/09/01 05:38:46;;;;;;;;;;;14.90;95.00;;;;;;5009974;28;19914;-71
2023/09/01 05:41:12;;;;;;;;;;;14.90;94.70;;;;;;5007118;28;19972;-71
2023/09/01 05:43:38;;;;;;;;;;;14.90;94.80;;;;;;5024916;28;19917;-71
2023/09/01 05:46:04;;;;;;;;;;;14.90;94.70;;;;;;5010363;28;19940;-71
2023/09/01 05:48:29;;;;;;;;;;;14.90;94.70;;;;;;5009824;28;20549;-71
2023/09/01 05:50:55;;;;;;;;;;;14.90;94.70;;;;;;5009934;28;19921;-70
2023/09/01 05:53:23;;;;;;;;;;;15.00;94.70;;;;;;5010049;28;19969;-71
2023/09/01 05:55:48;;;;;;;;;;;15.00;94.70;;;;;;5009570;28;19944;-71
2023/09/01 05:58:14;;;;;;;;;;;15.00;94.70;;;;;;5010164;28;20255;-70
2023/09/01 06:00:40;;;;;;;;;;;15.00;94.70;;;;;;5008250;28;19909;-71
2023/09/01 06:03:05;;;;;;;;;;;15.00;94.80;;;;;;5010066;28;19964;-71
2023/09/01 06:05:31;;;;;;;;;;;15.00;94.80;;;;;;5009384;28;20007;-71
2023/09/01 06:07:57;;;;;;;;;;;15.00;94.80;;;;;;5007799;28;19960;-71
2023/09/01 06:10:22;;;;;;;;;;;15.00;94.80;;;;;;5009381;28;19917;-71
2023/09/01 06:12:48;;;;;;;;;;;15.00;94.70;;;;;;5009180;28;20012;-71
2023/09/01 06:15:13;;;;;;;;;;;15.10;94.70;;;;;;5009783;28;19920;-71
2023/09/01 06:17:39;;;;;;;;;;;15.10;94.70;;;;;;5009264;28;19909;-71
2023/09/01 06:20:05;;;;;;;;;;;15.10;94.70;;;;;;5009785;28;19917;-71
2023/09/01 06:22:30;;;;;;;;;;;15.20;94.70;;;;;;5008951;28;20579;-70
2023/09/01 06:24:56;;;;;;;;;;;15.20;94.70;;;;;;5009234;28;19940;-71
2023/09/01 06:27:21;;;;;;;;;;;15.20;94.70;;;;;;5009260;28;20008;-71
2023/09/01 06:29:47;;;;;;;;;;;15.30;94.70;;;;;;5008972;28;20545;-71
2023/09/01 06:32:13;;;;;;;;;;;15.30;94.70;;;;;;5009246;28;20052;-71
2023/09/01 06:34:39;;;;;;;;;;;15.30;94.70;;;;;;5009077;28;19921;-71
2023/09/01 06:37:04;;;;;;;;;;;15.30;95.00;;;;;;5009401;28;19913;-70
2023/09/01 06:39:30;;;;;;;;;;;15.40;94.70;;;;;;5009149;28;19913;-70
2023/09/01 06:41:55;;;;;;;;;;;15.40;94.70;;;;;;5007472;28;19928;-70
2023/09/01 06:44:21;;;;;;;;;;;15.40;94.70;;;;;;5009092;28;19968;-70
2023/09/01 06:46:46;;;;;;;;;;;15.40;94.60;;;;;;5008927;28;20363;-71
2023/09/01 06:49:12;;;;;;;;;;;15.40;94.60;;;;;;5008076;28;19921;-71
2023/09/01 06:51:38;;;;;;;;;;;15.50;94.60;;;;;;5006952;28;19917;-71
2023/09/01 06:54:03;;;;;;;;;;;15.50;94.50;;;;;;5008098;28;20425;-71
2023/09/01 06:56:29;;;;;;;;;;;15.50;94.60;;;;;;5009254;28;20326;-71
2023/09/01 06:58:54;;;;;;;;;;;15.60;94.50;;;;;;5008838;28;19948;-70
2023/09/01 07:01:21;;;;;;;;;;;15.60;94.50;;;;;;5008809;28;19925;-70
2023/09/01 07:03:47;;;;;;;;;;;15.60;94.50;;;;;;5008716;28;20370;-70
2023/09/01 07:06:12;;;;;;;;;;;15.60;94.50;;;;;;5008736;28;19914;-70
2023/09/01 07:08:38;;;;;;;;;;;15.60;94.50;;;;;;5008669;28;19913;-70
2023/09/01 07:11:04;;;;;;;;;;;15.70;94.50;;;;;;5008635;28;19917;-70
2023/09/01 07:13:30;;;;;;;;;;;15.70;94.40;;;;;;5007176;28;20264;-71
2023/09/01 07:15:55;;;;;;;;;;;15.70;94.40;;;;;;5009055;28;19920;-70
2023/09/01 07:18:22;;;;;;;;;;;15.80;94.40;;;;;;5008942;28;19917;-70
2023/09/01 07:20:48;;;;;;;;;;;15.80;94.30;;;;;;5008106;28;19913;-70
2023/09/01 07:23:14;;;;;;;;;;;15.80;94.40;;;;;;5008696;28;20452;-70
2023/09/01 07:25:40;;;;;;;;;;;15.80;94.40;;;;;;5008262;28;19944;-70
2023/09/01 07:28:06;;;;;;;;;;;15.90;94.30;;;;;;5008473;28;20338;-70
2023/09/01 07:30:32;;;;;;;;;;;15.90;94.30;;;;;;5007458;28;19913;-70
2023/09/01 07:32:58;;;;;;;;;;;15.90;94.30;;;;;;5008872;28;20394;-71
2023/09/01 07:35:24;;;;;;;;;;;15.90;94.30;;;;;;5007368;28;19972;-70
2023/09/01 07:37:49;;;;;;;;;;;15.90;94.30;;;;;;5005132;28;20425;-70
2023/09/01 07:40:15;;;;;;;;;;;16.00;94.40;;;;;;5002762;28;19914;-70
2023/09/01 07:42:40;;;;;;;;;;;16.00;94.30;;;;;;5007813;28;19926;-70
2023/09/01 07:45:06;;;;;;;;;;;16.00;94.20;;;;;;5008596;28;19914;-70
2023/09/01 07:47:31;;;;;;;;;;;16.00;94.20;;;;;;5007965;28;19913;-70
2023/09/01 07:49:57;;;;;;;;;;;16.10;94.20;;;;;;5008547;28;19917;-70
2023/09/01 07:52:22;;;;;;;;;;;16.10;94.20;;;;;;5008100;28;19913;-70
2023/09/01 07:54:48;;;;;;;;;;;16.20;94.20;;;;;;5008046;28;19964;-70
2023/09/01 07:57:13;;;;;;;;;;;16.20;94.20;;;;;;5008240;28;20290;-70
2023/09/01 07:59:39;;;;;;;;;;;16.20;94.20;;;;;;5007750;28;19918;-70
2023/09/01 08:02:05;;;;;;;;;;;16.20;94.20;;;;;;5008001;28;19917;-70
2023/09/01 08:04:31;;;;;;;;;;;16.20;94.20;;;;;;5006388;28;19921;-70
2023/09/01 08:06:58;;;;;;;;;;;16.20;94.10;;;;;;5006284;28;19909;-70
2023/09/01 08:09:23;;;;;;;;;;;16.30;94.10;;;;;;5008062;28;20067;-70
2023/09/01 08:11:49;;;;;;;;;;;16.30;94.10;;;;;;5007327;28;20033;-70
2023/09/01 08:14:14;;;;;;;;;;;16.30;94.10;;;;;;5008114;28;19987;-70
2023/09/01 08:16:40;;;;;;;;;;;16.30;94.00;;;;;;5007374;28;19917;-70
2023/09/01 08:19:06;;;;;;;;;;;16.30;94.00;;;;;;5008145;28;19917;-70
2023/09/01 08:21:32;;;;;;;;;;;16.40;94.10;;;;;;5007555;28;19913;-70
2023/09/01 08:23:58;;;;;;;;;;;16.40;94.10;;;;;;5008150;28;19920;-70
2023/09/01 08:26:24;;;;;;;;;;;16.40;94.10;;;;;;5008099;28;19914;-70
2023/09/01 08:28:49;;;;;;;;;;;16.40;94.30;;;;;;5006088;28;19914;-70
2023/09/01 08:31:15;;;;;;;;;;;16.50;94.50;;;;;;5007613;28;19925;-70
2023/09/01 08:33:42;;;;;;;;;;;16.50;94.50;;;;;;5007256;28;19917;-70
2023/09/01 08:36:08;;;;;;;;;;;16.50;94.50;;;;;;5007741;28;20050;-70
2023/09/01 08:38:33;;;;;;;;;;;16.60;94.50;;;;;;5007431;28;20699;-70
2023/09/01 08:41:00;;;;;;;;;;;16.60;94.40;;;;;;5009256;28;19940;-70
2023/09/01 08:43:26;;;;;;;;;;;16.60;94.20;;;;;;5011549;28;19917;-70
2023/09/01 08:45:52;;;;;;;;;;;16.60;94.20;;;;;;5008767;28;19918;-71
2023/09/01 08:48:18;;;;;;;;;;;16.70;94.40;;;;;;5006385;28;20337;-70
2023/09/01 08:50:43;;;;;;;;;;;16.70;94.40;;;;;;5010632;28;19927;-70
2023/09/01 08:53:09;;;;;;;;;;;16.70;94.60;;;;;;5011490;28;19988;-70
2023/09/01 08:55:37;;;;;;;;;;;16.80;94.60;;;;;;5010978;28;19909;-70
2023/09/01 08:58:03;;;;;;;;;;;16.80;94.60;;;;;;5011124;28;19913;-70
2023/09/01 09:00:29;;;;;;;;;;;16.90;94.40;;;;;;5009619;28;19955;-70
2023/09/01 09:02:55;;;;;;;;;;;16.90;94.30;;;;;;5009656;28;19945;-70
2023/09/01 09:05:22;;;;;;;;;;;16.90;94.50;;;;;;5010895;28;20778;-70
2023/09/01 09:08:01;;;;;;;;;;;17.00;94.40;;;;;;5010198;28;19914;-70
2023/09/01 09:10:37;;;;;;;;;;;17.00;94.40;;;;;;5010687;28;20059;-70
2023/09/01 09:13:21;;;;;;;;;;;17.10;94.20;;;;;;5004242;28;19909;-70
2023/09/01 09:16:05;;;;;;;;;;;17.10;94.40;;;;;;5009682;28;20004;-70
2023/09/01 09:18:31;;;;;;;;;;;17.10;94.20;;;;;;5010177;28;19914;-71
2023/09/01 09:20:56;;;;;;;;;;;17.10;94.30;;;;;;5001861;28;19976;-71
2023/09/01 09:23:40;;;;;;;;;;;17.20;94.30;;;;;;5009555;28;19921;-71
2023/09/01 09:26:05;;;;;;;;;;;17.10;94.30;;;;;;5011191;28;19914;-70
2023/09/01 09:28:31;;;;;;;;;;;17.10;94.30;;;;;;5011221;28;20314;-71
2023/09/01 09:30:56;;;;;;;;;;;17.10;94.30;;;;;;5002832;28;19917;-71
2023/09/01 09:33:26;;;;;;;;;;;17.10;94.30;;;;;;5011078;28;19920;-70
2023/09/01 09:35:52;;;;;;;;;;;17.10;94.20;;;;;;5008934;28;20012;-70
2023/09/01 09:38:17;;;;;;;;;;;17.10;94.30;;;;;;5010539;28;20315;-70
2023/09/01 09:40:56;;;;;;;;;;;17.10;94.20;;;;;;5008778;28;19921;-70
2023/09/01 09:43:22;;;;;;;;;;;17.10;94.30;;;;;;5009308;28;19913;-70
2023/09/01 09:45:48;;;;;;;;;;;17.00;94.30;;;;;;5002862;28;19920;-70
2023/09/01 09:48:15;;;;;;;;;;;17.00;94.30;;;;;;5010841;28;19921;-70
2023/09/01 09:50:41;;;;;;;;;;;17.00;94.40;;;;;;5010214;28;19983;-70
2023/09/01 09:53:06;;;;;;;;;;;17.00;94.40;;;;;;5010060;28;20518;-70
2023/09/01 09:55:44;;;;;;;;;;;17.00;94.40;;;;;;5009983;28;19924;-71
2023/09/01 09:58:10;;;;;;;;;;;16.90;94.40;;;;;;5004066;28;19993;-70
2023/09/01 10:00:43;;;;;;;;;;;16.90;94.40;;;;;;5009823;28;20012;-70
2023/09/01 10:03:08;;;;;;;;;;;16.90;94.50;;;;;;5010292;28;19924;-70
2023/09/01 10:05:34;;;;;;;;;;;16.90;94.50;;;;;;5010001;28;20388;-70
2023/09/01 10:08:00;;;;;;;;;;;16.90;94.40;;;;;;5008355;28;19951;-70
2023/09/01 10:10:26;;;;;;;;;;;16.90;94.50;;;;;;5009965;28;19921;-70
2023/09/01 10:12:52;;;;;;;;;;;16.90;94.40;;;;;;5009722;28;19921;-70
2023/09/01 10:15:18;;;;;;;;;;;16.90;94.40;;;;;;5009953;28;19923;-70
2023/09/01 10:17:46;;;;;;;;;;;16.90;94.40;;;;;;5009425;28;20381;-70
2023/09/01 10:20:12;;;;;;;;;;;16.90;94.40;;;;;;5009468;28;20476;-70
2023/09/01 10:22:40;;;;;;;;;;;16.90;94.50;;;;;;5009429;28;19924;-70
2023/09/01 10:25:16;;;;;;;;;;;16.90;94.50;;;;;;5009880;28;19936;-70
2023/09/01 10:28:00;;;;;;;;;;;16.90;94.60;;;;;;5009378;28;19916;-70
2023/09/01 10:30:26;;;;;;;;;;;16.90;94.70;;;;;;5009525;28;20340;-70
2023/09/01 10:33:01;;;;;;;;;;;16.90;94.60;;;;;;5009662;28;19909;-70
2023/09/01 10:35:39;;;;;;;;;;;16.90;94.50;;;;;;5009583;28;19944;-70
2023/09/01 10:38:11;;;;;;;;;;;16.90;94.50;;;;;;5002564;28;19948;-71
2023/09/01 10:40:47;;;;;;;;;;;16.90;94.50;;;;;;5007437;28;19971;-70
2023/09/01 10:43:33;;;;;;;;;;;16.90;94.60;;;;;;5009140;28;19917;-70
2023/09/01 10:46:17;;;;;;;;;;;16.90;94.70;;;;;;5009349;28;20633;-71
2023/09/01 10:48:58;;;;;;;;;;;16.90;94.70;;;;;;5008465;28;19917;-70
2023/09/01 10:51:26;;;;;;;;;;;16.90;94.70;;;;;;5004777;28;19918;-70
2023/09/01 10:53:52;;;;;;;;;;;16.90;94.70;;;;;;5008650;28;19916;-70
2023/09/01 10:56:20;;;;;;;;;;;16.90;94.80;;;;;;5007437;28;19909;-70
2023/09/01 10:58:49;;;;;;;;;;;16.90;94.60;;;;;;5008512;28;19913;-70
2023/09/01 11:01:24;;;;;;;;;;;16.90;94.70;;;;;;5008932;28;19910;-70
2023/09/01 11:03:50;;;;;;;;;;;16.90;94.80;;;;;;5007919;28;19917;-70
2023/09/01 11:06:15;;;;;;;;;;;16.90;94.80;;;;;;5008430;28;19921;-70
2023/09/01 11:08:41;;;;;;;;;;;17.00;94.90;;;;;;5007433;28;19920;-70
2023/09/01 11:11:07;;;;;;;;;;;17.00;94.90;;;;;;5008922;28;20258;-70
2023/09/01 11:13:33;;;;;;;;;;;17.00;95.00;;;;;;5008594;28;19987;-70
2023/09/01 11:16:06;;;;;;;;;;;17.00;95.00;;;;;;4999811;28;20374;-70
2023/09/01 11:18:32;;;;;;;;;;;17.00;94.90;;;;;;5009082;28;19964;-70
2023/09/01 11:21:00;;;;;;;;;;;17.10;95.00;;;;;;5008288;28;19914;-70
2023/09/01 11:23:27;;;;;;;;;;;17.10;95.00;;;;;;5008790;28;19918;-70
2023/09/01 11:26:05;;;;;;;;;;;17.10;95.00;;;;;;5008439;28;19975;-70
2023/09/01 11:28:32;;;;;;;;;;;17.20;95.20;;;;;;5008424;28;19964;-70
2023/09/01 11:30:59;;;;;;;;;;;17.20;95.10;;;;;;5007853;28;19917;-70
2023/09/01 11:33:25;;;;;;;;;;;17.20;95.20;;;;;;5008763;28;19913;-70
2023/09/01 11:36:12;;;;;;;;;;;17.20;95.10;;;;;;5008257;28;20362;-70
2023/09/01 11:38:39;;;;;;;;;;;17.30;94.90;;;;;;5008232;28;20036;-70
2023/09/01 11:41:11;;;;;;;;;;;17.30;95.00;;;;;;5008312;28;19910;-70
2023/09/01 11:43:37;;;;;;;;;;;17.40;94.90;;;;;;4999226;28;20227;-70
2023/09/01 11:46:03;;;;;;;;;;;17.40;95.00;;;;;;5007995;28;19924;-70
2023/09/01 11:48:29;;;;;;;;;;;17.40;94.80;;;;;;5008257;28;19921;-71
2023/09/01 11:50:57;;;;;;;;;;;17.40;94.80;;;;;;5007887;28;19960;-70
2023/09/01 11:53:23;;;;;;;;;;;17.40;94.90;;;;;;5008461;28;20445;-70
2023/09/01 11:55:49;;;;;;;;;;;17.50;94.90;;;;;;5007811;28;20384;-70
2023/09/01 11:58:15;;;;;;;;;;;17.50;94.90;;;;;;5007108;28;20008;-70
2023/09/01 12:00:40;;;;;;;;;;;17.50;94.80;;;;;;5007297;28;19953;-70
2023/09/01 12:03:06;;;;;;;;;;;17.50;94.90;;;;;;5008313;28;19948;-70
2023/09/01 12:05:33;;;;;;;;;;;17.60;94.70;;;;;;5008093;28;19921;-70
2023/09/01 12:07:59;;;;;;;;;;;17.60;94.90;;;;;;5007440;28;20346;-70
2023/09/01 12:10:25;;;;;;;;;;;17.60;94.70;;;;;;5007845;28;20000;-70
2023/09/01 12:13:00;;;;;;;;;;;17.60;94.70;;;;;;5007478;28;20016;-70
2023/09/01 12:15:25;;;;;;;;;;;17.60;94.60;;;;;;5006262;28;19914;-70
2023/09/01 12:17:51;;;;;;;;;;;17.60;94.50;;;;;;5007419;28;19928;-70
2023/09/01 12:20:16;;;;;;;;;;;17.60;94.80;;;;;;5007664;28;19916;-70
2023/09/01 12:22:42;;;;;;;;;;;17.60;94.60;;;;;;5007512;28;19914;-70
2023/09/01 12:25:07;;;;;;;;;;;17.60;94.60;;;;;;5007998;28;19945;-70
2023/09/01 12:27:33;;;;;;;;;;;17.60;94.80;;;;;;5007845;28;19913;-70
2023/09/01 12:29:58;;;;;;;;;;;17.60;94.70;;;;;;5007384;28;19921;-70
2023/09/01 12:32:26;;;;;;;;;;;17.60;94.90;;;;;;5007378;28;19913;-70
2023/09/01 12:34:51;;;;;;;;;;;17.60;94.60;;;;;;5005619;28;20369;-70
2023/09/01 12:37:17;;;;;;;;;;;17.70;94.70;;;;;;5007822;28;19910;-70
2023/09/01 12:39:42;;;;;;;;;;;17.70;94.70;;;;;;5007467;28;19957;-70
2023/09/01 12:42:08;;;;;;;;;;;17.70;94.50;;;;;;5007696;28;19918;-70
2023/09/01 12:44:34;;;;;;;;;;;17.80;94.40;;;;;;5007849;28;19921;-70
2023/09/01 12:47:00;;;;;;;;;;;17.80;94.30;;;;;;5007746;28;19913;-70
2023/09/01 12:49:26;;;;;;;;;;;17.80;94.40;;;;;;5007710;28;19921;-70
2023/09/01 12:51:51;;;;;;;;;;;17.80;94.50;;;;;;5007005;28;19917;-70
2023/09/01 12:54:17;;;;;;;;;;;17.90;94.50;;;;;;5007504;28;20004;-70
2023/09/01 12:56:45;;;;;;;;;;;17.90;94.50;;;;;;5005191;28;19909;-70
2023/09/01 12:59:10;;;;;;;;;;;17.90;94.30;;;;;;5007568;28;20301;-70
2023/09/01 13:01:36;;;;;;;;;;;18.00;94.40;;;;;;5006355;28;19976;-70
2023/09/01 13:04:01;;;;;;;;;;;18.00;94.20;;;;;;5007491;28;19913;-70
2023/09/01 13:06:27;;;;;;;;;;;18.00;94.10;;;;;;5005480;28;19924;-70
2023/09/01 13:08:52;;;;;;;;;;;18.00;94.20;;;;;;5006913;28;19947;-70
2023/09/01 13:11:18;;;;;;;;;;;18.10;94.00;;;;;;5007176;28;19914;-70
2023/09/01 13:13:43;;;;;;;;;;;18.10;94.20;;;;;;5007068;28;19961;-70
2023/09/01 13:16:09;;;;;;;;;;;18.10;94.30;;;;;;5007663;28;19909;-70
2023/09/01 13:18:35;;;;;;;;;;;18.10;94.00;;;;;;5006148;28;19921;-70
2023/09/01 13:21:01;;;;;;;;;;;18.20;93.90;;;;;;4999237;28;19913;-70
2023/09/01 13:23:26;;;;;;;;;;;18.20;94.00;;;;;;5007465;28;20055;-70
2023/09/01 13:25:53;;;;;;;;;;;18.30;93.90;;;;;;5005499;28;19914;-70
2023/09/01 13:28:20;;;;;;;;;;;18.30;93.90;;;;;;5009474;28;19913;-70
2023/09/01 13:30:45;;;;;;;;;;;18.30;93.90;;;;;;5010257;28;19914;-70
2023/09/01 13:33:13;;;;;;;;;;;18.30;93.90;;;;;;5010351;28;19921;-70
2023/09/01 13:35:39;;;;;;;;;;;18.30;93.90;;;;;;5008281;28;19964;-70
2023/09/01 13:38:05;;;;;;;;;;;18.30;94.20;;;;;;5010936;28;20015;-70
2023/09/01 13:40:30;;;;;;;;;;;18.30;93.80;;;;;;5010641;28;19953;-70
2023/09/01 13:42:56;;;;;;;;;;;18.40;93.80;;;;;;5010140;28;20016;-70
2023/09/01 13:45:24;;;;;;;;;;;18.40;94.10;;;;;;5009155;28;19992;-70
2023/09/01 13:47:50;;;;;;;;;;;18.50;93.70;;;;;;5010379;28;19913;-70
2023/09/01 13:50:15;;;;;;;;;;;18.50;93.80;;;;;;5010342;28;20404;-70
2023/09/01 13:52:41;;;;;;;;;;;18.60;93.60;;;;;;5010153;28;19914;-70
2023/09/01 13:55:06;;;;;;;;;;;18.60;93.50;;;;;;5010466;28;19996;-70
2023/09/01 13:57:32;;;;;;;;;;;18.70;93.70;;;;;;5010563;28;20283;-70
2023/09/01 13:59:57;;;;;;;;;;;18.70;93.30;;;;;;5009817;28;19921;-70
2023/09/01 14:02:23;;;;;;;;;;;18.80;93.30;;;;;;5010160;28;20391;-70
2023/09/01 14:04:49;;;;;;;;;;;18.80;93.40;;;;;;5009959;28;19913;-70
2023/09/01 14:07:14;;;;;;;;;;;18.90;93.30;;;;;;5009739;28;20067;-70
2023/09/01 14:09:40;;;;;;;;;;;18.90;93.30;;;;;;5009751;28;20016;-70
2023/09/01 14:12:05;;;;;;;;;;;19.00;93.30;;;;;;5010114;28;19924;-70
2023/09/01 14:14:31;;;;;;;;;;;19.00;93.10;;;;;;5009889;28;20004;-70